sensor_id;sensor_type;location;lat;lon;timestamp;temperature;humidity
65462;DHT22;53236;43.666;18.444;2023-03-26T00:01:03;0.70;99.90
65462;DHT22;53236;43.666;18.444;2023-03-26T00:03:30;0.70;99.90
65462;DHT22;53236;43.666;18.444;2023-03-26T00:06:07;0.70;99.90
65462;DHT22;53236;43.666;18.444;2023-03-26T00:08:34;0.60;99.90
65462;DHT22;53236;43.666;18.444;2023-03-26T00:11:01;0.60;99.90
65462;DHT22;53236;43.666;18.444;2023-03-26T00:13:27;0.50;99.90
65462;DHT22;53236;43.666;18.444;2023-03-26T00:15:53;0.50;99.90
65462;DHT22;53236;43.666;18.444;2023-03-26T00:18:19;0.50;99.90
65462;DHT22;53236;43.666;18.444;2023-03-26T00:20:47;0.60;99.90
65462;DHT22;53236;43.666;18.444;2023-03-26T00:23:13;0.50;99.90
65462;DHT22;53236;43.666;18.444;2023-03-26T00:25:39;0.40;99.90
65462;DHT22;53236;43.666;18.444;2023-03-26T00:28:07;0.40;99.90
65462;DHT22;53236;43.666;18.444;2023-03-26T00:30:33;0.40;99.90
65462;DHT22;53236;43.666;18.444;2023-03-26T00:33:06;0.40;99.90
65462;DHT22;53236;43.666;18.444;2023-03-26T00:35:35;0.30;99.90
65462;DHT22;53236;43.666;18.444;2023-03-26T00:38:01;0.30;99.90
65462;DHT22;53236;43.666;18.444;2023-03-26T00:40:27;0.30;99.90
65462;DHT22;53236;43.666;18.444;2023-03-26T00:42:54;0.20;99.90
65462;DHT22;53236;43.666;18.444;2023-03-26T00:45:20;0.20;99.90
65462;DHT22;53236;43.666;18.444;2023-03-26T00:47:47;0.10;99.90
65462;DHT22;53236;43.666;18.444;2023-03-26T00:50:12;0.10;99.90
65462;DHT22;53236;43.666;18.444;2023-03-26T00:52:44;0.10;99.90
65462;DHT22;53236;43.666;18.444;2023-03-26T00:55:11;0.10;99.90
65462;DHT22;53236;43.666;18.444;2023-03-26T00:57:36;0.10;99.90
65462;DHT22;53236;43.666;18.444;2023-03-26T01:00:11;0.10;99.90
65462;DHT22;53236;43.666;18.444;2023-03-26T01:02:39;0.10;99.90
65462;DHT22;53236;43.666;18.444;2023-03-26T01:05:41;0.10;99.90
65462;DHT22;53236;43.666;18.444;2023-03-26T01:10:53;0.00;99.90
65462;DHT22;53236;43.666;18.444;2023-03-26T01:13:28;0.10;99.90
65462;DHT22;53236;43.666;18.444;2023-03-26T01:15:55;0.00;99.90
65462;DHT22;53236;43.666;18.444;2023-03-26T01:18:23;0.00;99.90
65462;DHT22;53236;43.666;18.444;2023-03-26T01:20:54;0.00;99.90
65462;DHT22;53236;43.666;18.444;2023-03-26T01:23:48;-0.10;99.90
65462;DHT22;53236;43.666;18.444;2023-03-26T01:28:50;-0.20;99.90
65462;DHT22;53236;43.666;18.444;2023-03-26T01:31:49;-0.20;99.90
65462;DHT22;53236;43.666;18.444;2023-03-26T01:34:28;-0.20;99.90
65462;DHT22;53236;43.666;18.444;2023-03-26T01:37:10;-0.20;99.90
65462;DHT22;53236;43.666;18.444;2023-03-26T01:39:46;-0.20;99.90
65462;DHT22;53236;43.666;18.444;2023-03-26T01:42:47;-0.20;99.90
65462;DHT22;53236;43.666;18.444;2023-03-26T01:45:20;-0.30;99.90
65462;DHT22;53236;43.666;18.444;2023-03-26T01:47:47;-0.20;99.90
65462;DHT22;53236;43.666;18.444;2023-03-26T01:50:13;-0.30;99.90
65462;DHT22;53236;43.666;18.444;2023-03-26T01:52:39;-0.30;99.90
65462;DHT22;53236;43.666;18.444;2023-03-26T01:55:07;-0.30;99.90
65462;DHT22;53236;43.666;18.444;2023-03-26T01:57:49;-0.40;99.90
65462;DHT22;53236;43.666;18.444;2023-03-26T02:00:32;-0.40;99.90
65462;DHT22;53236;43.666;18.444;2023-03-26T02:03:03;-0.40;99.90
65462;DHT22;53236;43.666;18.444;2023-03-26T02:05:53;-0.30;99.90
65462;DHT22;53236;43.666;18.444;2023-03-26T02:08:36;-0.30;99.90
65462;DHT22;53236;43.666;18.444;2023-03-26T02:11:06;-0.30;99.90
65462;DHT22;53236;43.666;18.444;2023-03-26T02:13:36;-0.30;99.90
65462;DHT22;53236;43.666;18.444;2023-03-26T02:16:05;-0.30;99.90
65462;DHT22;53236;43.666;18.444;2023-03-26T02:18:31;-0.20;99.90
65462;DHT22;53236;43.666;18.444;2023-03-26T02:21:16;-0.20;99.90
65462;DHT22;53236;43.666;18.444;2023-03-26T02:23:45;-0.20;99.90
65462;DHT22;53236;43.666;18.444;2023-03-26T02:26:15;-0.20;99.90
65462;DHT22;53236;43.666;18.444;2023-03-26T02:28:41;-0.20;99.90
65462;DHT22;53236;43.666;18.444;2023-03-26T02:31:07;-0.20;99.90
65462;DHT22;53236;43.666;18.444;2023-03-26T02:33:36;-0.20;99.90
65462;DHT22;53236;43.666;18.444;2023-03-26T02:36:02;-0.20;99.90
65462;DHT22;53236;43.666;18.444;2023-03-26T02:38:30;-0.20;99.90
65462;DHT22;53236;43.666;18.444;2023-03-26T02:40:58;-0.20;99.90
65462;DHT22;53236;43.666;18.444;2023-03-26T02:43:24;-0.20;99.90
65462;DHT22;53236;43.666;18.444;2023-03-26T02:45:50;-0.20;99.90
65462;DHT22;53236;43.666;18.444;2023-03-26T02:48:15;-0.30;99.90
65462;DHT22;53236;43.666;18.444;2023-03-26T02:50:42;-0.30;99.90
65462;DHT22;53236;43.666;18.444;2023-03-26T02:53:08;-0.30;99.90
65462;DHT22;53236;43.666;18.444;2023-03-26T02:55:34;-0.30;99.90
65462;DHT22;53236;43.666;18.444;2023-03-26T02:58:00;-0.40;99.90
65462;DHT22;53236;43.666;18.444;2023-03-26T03:00:26;-0.40;99.90
65462;DHT22;53236;43.666;18.444;2023-03-26T03:02:51;-0.40;99.90
65462;DHT22;53236;43.666;18.444;2023-03-26T03:05:18;-0.50;99.90
65462;DHT22;53236;43.666;18.444;2023-03-26T03:07:45;-0.50;99.90
65462;DHT22;53236;43.666;18.444;2023-03-26T03:10:12;-0.50;99.90
65462;DHT22;53236;43.666;18.444;2023-03-26T03:12:42;-0.50;99.90
65462;DHT22;53236;43.666;18.444;2023-03-26T03:15:08;-0.60;99.90
65462;DHT22;53236;43.666;18.444;2023-03-26T03:17:34;-0.60;99.90
65462;DHT22;53236;43.666;18.444;2023-03-26T03:20:00;-0.60;99.90
65462;DHT22;53236;43.666;18.444;2023-03-26T03:22:26;-0.70;99.90
65462;DHT22;53236;43.666;18.444;2023-03-26T03:24:51;-0.70;99.90
65462;DHT22;53236;43.666;18.444;2023-03-26T03:27:17;-0.70;99.90
65462;DHT22;53236;43.666;18.444;2023-03-26T03:29:48;-0.70;99.90
65462;DHT22;53236;43.666;18.444;2023-03-26T03:32:13;-0.70;99.90
65462;DHT22;53236;43.666;18.444;2023-03-26T03:34:39;-0.70;99.90
65462;DHT22;53236;43.666;18.444;2023-03-26T03:37:06;-0.80;99.90
65462;DHT22;53236;43.666;18.444;2023-03-26T03:39:32;-0.80;99.90
65462;DHT22;53236;43.666;18.444;2023-03-26T03:41:58;-0.90;99.90
65462;DHT22;53236;43.666;18.444;2023-03-26T03:44:23;-0.90;99.90
65462;DHT22;53236;43.666;18.444;2023-03-26T03:46:49;-1.00;99.90
65462;DHT22;53236;43.666;18.444;2023-03-26T03:49:18;-1.00;99.90
65462;DHT22;53236;43.666;18.444;2023-03-26T03:51:44;-1.00;99.90
65462;DHT22;53236;43.666;18.444;2023-03-26T03:54:10;-1.10;99.90
65462;DHT22;53236;43.666;18.444;2023-03-26T03:56:35;-1.10;99.90
65462;DHT22;53236;43.666;18.444;2023-03-26T03:59:02;-1.10;99.90
65462;DHT22;53236;43.666;18.444;2023-03-26T04:01:28;-1.10;99.90
65462;DHT22;53236;43.666;18.444;2023-03-26T04:03:55;-1.10;99.90
65462;DHT22;53236;43.666;18.444;2023-03-26T04:06:21;-1.10;99.90
65462;DHT22;53236;43.666;18.444;2023-03-26T04:08:50;-1.10;99.90
65462;DHT22;53236;43.666;18.444;2023-03-26T04:11:16;-1.10;99.90
65462;DHT22;53236;43.666;18.444;2023-03-26T04:13:42;-1.10;99.90
65462;DHT22;53236;43.666;18.444;2023-03-26T04:16:08;-1.20;99.90
65462;DHT22;53236;43.666;18.444;2023-03-26T04:18:34;-1.20;99.90
65462;DHT22;53236;43.666;18.444;2023-03-26T04:21:02;-1.20;99.90
65462;DHT22;53236;43.666;18.444;2023-03-26T04:23:30;-1.30;99.90
65462;DHT22;53236;43.666;18.444;2023-03-26T04:25:57;-1.30;99.90
65462;DHT22;53236;43.666;18.444;2023-03-26T04:28:35;-1.30;99.90
65462;DHT22;53236;43.666;18.444;2023-03-26T04:31:09;-1.30;99.90
65462;DHT22;53236;43.666;18.444;2023-03-26T04:33:36;-1.30;99.90
65462;DHT22;53236;43.666;18.444;2023-03-26T04:36:04;-1.30;99.90
65462;DHT22;53236;43.666;18.444;2023-03-26T04:38:35;-1.30;99.90
65462;DHT22;53236;43.666;18.444;2023-03-26T04:41:02;-1.30;99.90
65462;DHT22;53236;43.666;18.444;2023-03-26T04:43:32;-1.30;99.90
65462;DHT22;53236;43.666;18.444;2023-03-26T04:46:01;-1.30;99.90
65462;DHT22;53236;43.666;18.444;2023-03-26T04:48:28;-1.30;99.90
65462;DHT22;53236;43.666;18.444;2023-03-26T04:50:54;-1.20;99.90
65462;DHT22;53236;43.666;18.444;2023-03-26T04:53:21;-1.30;99.90
65462;DHT22;53236;43.666;18.444;2023-03-26T04:58:21;-1.20;99.90
65462;DHT22;53236;43.666;18.444;2023-03-26T05:00:58;-1.20;99.90
65462;DHT22;53236;43.666;18.444;2023-03-26T05:03:29;-1.10;99.90
65462;DHT22;53236;43.666;18.444;2023-03-26T05:05:58;-1.10;99.90
65462;DHT22;53236;43.666;18.444;2023-03-26T05:08:24;-1.00;99.90
65462;DHT22;53236;43.666;18.444;2023-03-26T05:10:51;-1.00;99.90
65462;DHT22;53236;43.666;18.444;2023-03-26T05:13:17;-1.00;99.90
65462;DHT22;53236;43.666;18.444;2023-03-26T05:15:42;-0.90;99.90
65462;DHT22;53236;43.666;18.444;2023-03-26T05:18:08;-0.90;99.90
65462;DHT22;53236;43.666;18.444;2023-03-26T05:20:34;-0.90;99.90
65462;DHT22;53236;43.666;18.444;2023-03-26T05:23:00;-0.80;99.90
65462;DHT22;53236;43.666;18.444;2023-03-26T05:25:26;-0.70;99.90
65462;DHT22;53236;43.666;18.444;2023-03-26T05:27:52;-0.70;99.90
65462;DHT22;53236;43.666;18.444;2023-03-26T05:30:20;-0.20;99.90
65462;DHT22;53236;43.666;18.444;2023-03-26T05:32:47;1.90;99.90
65462;DHT22;53236;43.666;18.444;2023-03-26T05:35:14;4.60;99.90
65462;DHT22;53236;43.666;18.444;2023-03-26T05:37:42;7.10;99.90
65462;DHT22;53236;43.666;18.444;2023-03-26T05:40:10;9.50;93.50
65462;DHT22;53236;43.666;18.444;2023-03-26T05:42:42;10.80;67.40
65462;DHT22;53236;43.666;18.444;2023-03-26T05:45:10;11.70;63.00
65462;DHT22;53236;43.666;18.444;2023-03-26T05:47:36;12.50;59.10
65462;DHT22;53236;43.666;18.444;2023-03-26T05:50:03;13.00;56.90
65462;DHT22;53236;43.666;18.444;2023-03-26T05:52:29;14.00;57.10
65462;DHT22;53236;43.666;18.444;2023-03-26T05:54:54;14.70;56.20
65462;DHT22;53236;43.666;18.444;2023-03-26T05:57:20;14.70;54.00
65462;DHT22;53236;43.666;18.444;2023-03-26T05:59:48;15.70;52.80
65462;DHT22;53236;43.666;18.444;2023-03-26T06:02:14;16.60;51.60
65462;DHT22;53236;43.666;18.444;2023-03-26T06:04:40;18.20;50.80
65462;DHT22;53236;43.666;18.444;2023-03-26T06:07:07;19.40;47.00
65462;DHT22;53236;43.666;18.444;2023-03-26T06:09:36;21.00;44.10
65462;DHT22;53236;43.666;18.444;2023-03-26T06:12:04;21.70;41.80
65462;DHT22;53236;43.666;18.444;2023-03-26T06:14:31;21.70;39.00
65462;DHT22;53236;43.666;18.444;2023-03-26T06:16:56;21.60;39.80
65462;DHT22;53236;43.666;18.444;2023-03-26T06:19:22;21.80;39.00
65462;DHT22;53236;43.666;18.444;2023-03-26T06:21:48;22.80;40.70
65462;DHT22;53236;43.666;18.444;2023-03-26T06:24:14;22.90;37.70
65462;DHT22;53236;43.666;18.444;2023-03-26T06:26:41;24.20;37.60
65462;DHT22;53236;43.666;18.444;2023-03-26T06:29:07;24.30;37.20
65462;DHT22;53236;43.666;18.444;2023-03-26T06:31:33;24.60;37.10
65462;DHT22;53236;43.666;18.444;2023-03-26T06:33:59;24.10;35.70
65462;DHT22;53236;43.666;18.444;2023-03-26T06:36:25;23.90;36.80
65462;DHT22;53236;43.666;18.444;2023-03-26T06:38:50;23.30;36.80
65462;DHT22;53236;43.666;18.444;2023-03-26T06:41:16;23.40;37.10
65462;DHT22;53236;43.666;18.444;2023-03-26T06:43:42;22.60;38.60
65462;DHT22;53236;43.666;18.444;2023-03-26T06:46:08;22.50;38.20
65462;DHT22;53236;43.666;18.444;2023-03-26T06:48:33;23.90;37.60
65462;DHT22;53236;43.666;18.444;2023-03-26T06:50:59;24.30;37.00
65462;DHT22;53236;43.666;18.444;2023-03-26T06:53:25;24.70;36.00
65462;DHT22;53236;43.666;18.444;2023-03-26T06:55:52;25.80;35.80
65462;DHT22;53236;43.666;18.444;2023-03-26T06:58:18;25.80;34.90
65462;DHT22;53236;43.666;18.444;2023-03-26T07:00:45;26.10;35.10
65462;DHT22;53236;43.666;18.444;2023-03-26T07:03:11;27.40;35.60
65462;DHT22;53236;43.666;18.444;2023-03-26T07:05:39;27.90;35.40
65462;DHT22;53236;43.666;18.444;2023-03-26T07:08:05;27.60;33.90
65462;DHT22;53236;43.666;18.444;2023-03-26T07:10:31;28.70;34.90
65462;DHT22;53236;43.666;18.444;2023-03-26T07:12:57;28.50;34.10
65462;DHT22;53236;43.666;18.444;2023-03-26T07:15:23;30.00;34.60
65462;DHT22;53236;43.666;18.444;2023-03-26T07:17:49;29.20;32.40
65462;DHT22;53236;43.666;18.444;2023-03-26T07:20:15;29.20;34.00
65462;DHT22;53236;43.666;18.444;2023-03-26T07:22:41;29.60;32.70
65462;DHT22;53236;43.666;18.444;2023-03-26T07:25:07;30.90;33.80
65462;DHT22;53236;43.666;18.444;2023-03-26T07:27:49;32.70;31.20
65462;DHT22;53236;43.666;18.444;2023-03-26T07:35:53;33.00;30.50
65462;DHT22;53236;43.666;18.444;2023-03-26T07:44:06;33.40;31.40
65462;DHT22;53236;43.666;18.444;2023-03-26T07:46:40;34.90;30.70
65462;DHT22;53236;43.666;18.444;2023-03-26T07:49:07;36.20;29.70
65462;DHT22;53236;43.666;18.444;2023-03-26T07:51:34;36.70;29.40
65462;DHT22;53236;43.666;18.444;2023-03-26T07:54:00;36.10;29.40
65462;DHT22;53236;43.666;18.444;2023-03-26T07:56:41;35.30;29.50
65462;DHT22;53236;43.666;18.444;2023-03-26T07:59:21;36.40;29.70
65462;DHT22;53236;43.666;18.444;2023-03-26T08:05:12;38.40;29.30
65462;DHT22;53236;43.666;18.444;2023-03-26T08:07:54;39.40;27.90
65462;DHT22;53236;43.666;18.444;2023-03-26T08:14:02;39.90;26.20
65462;DHT22;53236;43.666;18.444;2023-03-26T08:16:12;39.40;26.50
65462;DHT22;53236;43.666;18.444;2023-03-26T08:21:30;39.60;28.30
65462;DHT22;53236;43.666;18.444;2023-03-26T08:29:54;39.00;24.70
65462;DHT22;53236;43.666;18.444;2023-03-26T08:32:23;38.00;25.60
65462;DHT22;53236;43.666;18.444;2023-03-26T08:34:49;38.60;24.80
65462;DHT22;53236;43.666;18.444;2023-03-26T08:37:17;37.70;26.40
65462;DHT22;53236;43.666;18.444;2023-03-26T08:39:42;38.10;25.30
65462;DHT22;53236;43.666;18.444;2023-03-26T08:58:56;35.20;26.00
65462;DHT22;53236;43.666;18.444;2023-03-26T09:02:02;35.00;27.20
65462;DHT22;53236;43.666;18.444;2023-03-26T09:19:19;37.20;25.60
65462;DHT22;53236;43.666;18.444;2023-03-26T09:50:31;26.00;30.20
65462;DHT22;53236;43.666;18.444;2023-03-26T09:53:36;24.70;31.40
65462;DHT22;53236;43.666;18.444;2023-03-26T09:56:37;23.30;33.20
65462;DHT22;53236;43.666;18.444;2023-03-26T10:01:55;22.60;34.00
65462;DHT22;53236;43.666;18.444;2023-03-26T10:07:40;21.40;35.10
65462;DHT22;53236;43.666;18.444;2023-03-26T10:10:41;21.00;37.90
65462;DHT22;53236;43.666;18.444;2023-03-26T10:13:31;21.20;36.40
65462;DHT22;53236;43.666;18.444;2023-03-26T10:24:12;23.10;33.70
65462;DHT22;53236;43.666;18.444;2023-03-26T10:35:35;20.40;37.10
65462;DHT22;53236;43.666;18.444;2023-03-26T10:41:13;20.40;36.50
65462;DHT22;53236;43.666;18.444;2023-03-26T10:53:17;20.50;37.50
65462;DHT22;53236;43.666;18.444;2023-03-26T10:55:39;20.20;35.40
65462;DHT22;53236;43.666;18.444;2023-03-26T10:58:30;20.10;36.10
65462;DHT22;53236;43.666;18.444;2023-03-26T11:03:53;19.60;36.60
65462;DHT22;53236;43.666;18.444;2023-03-26T11:23:33;18.90;40.70
65462;DHT22;53236;43.666;18.444;2023-03-26T11:26:42;19.00;39.00
65462;DHT22;53236;43.666;18.444;2023-03-26T11:37:27;18.40;39.60
65462;DHT22;53236;43.666;18.444;2023-03-26T11:39:55;18.50;38.80
65462;DHT22;53236;43.666;18.444;2023-03-26T11:42:24;18.30;38.00
65462;DHT22;53236;43.666;18.444;2023-03-26T11:44:59;18.30;38.70
65462;DHT22;53236;43.666;18.444;2023-03-26T11:47:34;18.30;40.40
65462;DHT22;53236;43.666;18.444;2023-03-26T11:50:03;18.30;39.20
65462;DHT22;53236;43.666;18.444;2023-03-26T11:52:31;18.50;40.60
65462;DHT22;53236;43.666;18.444;2023-03-26T11:54:57;18.60;38.20
65462;DHT22;53236;43.666;18.444;2023-03-26T11:57:29;18.60;40.00
65462;DHT22;53236;43.666;18.444;2023-03-26T12:00:13;18.60;39.90
65462;DHT22;53236;43.666;18.444;2023-03-26T12:02:44;18.30;38.50
65462;DHT22;53236;43.666;18.444;2023-03-26T12:05:20;18.00;38.30
65462;DHT22;53236;43.666;18.444;2023-03-26T12:10:38;17.90;39.20
65462;DHT22;53236;43.666;18.444;2023-03-26T12:16:00;18.00;39.50
65462;DHT22;53236;43.666;18.444;2023-03-26T12:18:28;18.00;38.90
65462;DHT22;53236;43.666;18.444;2023-03-26T12:21:12;18.00;38.20
65462;DHT22;53236;43.666;18.444;2023-03-26T12:23:54;17.90;38.70
65462;DHT22;53236;43.666;18.444;2023-03-26T12:29:05;18.10;39.80
65462;DHT22;53236;43.666;18.444;2023-03-26T12:31:56;18.30;39.70
65462;DHT22;53236;43.666;18.444;2023-03-26T12:34:32;18.40;37.60
65462;DHT22;53236;43.666;18.444;2023-03-26T12:37:03;18.20;37.90
65462;DHT22;53236;43.666;18.444;2023-03-26T12:39:38;18.00;38.20
65462;DHT22;53236;43.666;18.444;2023-03-26T12:42:50;17.80;37.70
65462;DHT22;53236;43.666;18.444;2023-03-26T12:45:11;18.00;38.80
65462;DHT22;53236;43.666;18.444;2023-03-26T12:47:37;18.10;38.90
65462;DHT22;53236;43.666;18.444;2023-03-26T12:50:03;17.80;38.50
65462;DHT22;53236;43.666;18.444;2023-03-26T12:53:03;17.70;38.90
65462;DHT22;53236;43.666;18.444;2023-03-26T12:58:33;17.50;38.30
65462;DHT22;53236;43.666;18.444;2023-03-26T13:01:08;17.50;39.50
65462;DHT22;53236;43.666;18.444;2023-03-26T13:09:27;17.50;41.00
65462;DHT22;53236;43.666;18.444;2023-03-26T13:12:09;17.50;41.30
65462;DHT22;53236;43.666;18.444;2023-03-26T13:15:05;17.60;42.90
65462;DHT22;53236;43.666;18.444;2023-03-26T13:17:56;17.70;42.20
65462;DHT22;53236;43.666;18.444;2023-03-26T13:26:17;17.60;40.80
65462;DHT22;53236;43.666;18.444;2023-03-26T13:39:48;16.60;44.10
65462;DHT22;53236;43.666;18.444;2023-03-26T13:42:44;16.30;44.30
65462;DHT22;53236;43.666;18.444;2023-03-26T13:47:54;16.50;44.80
65462;DHT22;53236;43.666;18.444;2023-03-26T13:50:34;16.60;46.30
65462;DHT22;53236;43.666;18.444;2023-03-26T13:53:10;16.70;45.40
65462;DHT22;53236;43.666;18.444;2023-03-26T13:55:42;16.80;44.90
65462;DHT22;53236;43.666;18.444;2023-03-26T14:00:51;16.50;44.80
65462;DHT22;53236;43.666;18.444;2023-03-26T14:08:52;16.20;46.00
65462;DHT22;53236;43.666;18.444;2023-03-26T14:11:36;16.30;46.20
65462;DHT22;53236;43.666;18.444;2023-03-26T14:17:00;16.30;46.20
65462;DHT22;53236;43.666;18.444;2023-03-26T14:42:18;15.70;47.50
65462;DHT22;53236;43.666;18.444;2023-03-26T14:50:39;15.40;48.10
65462;DHT22;53236;43.666;18.444;2023-03-26T14:53:38;15.30;47.50
65462;DHT22;53236;43.666;18.444;2023-03-26T14:59:05;15.00;48.80
65462;DHT22;53236;43.666;18.444;2023-03-26T15:01:42;15.10;48.80
65462;DHT22;53236;43.666;18.444;2023-03-26T15:07:13;15.30;48.20
65462;DHT22;53236;43.666;18.444;2023-03-26T15:40:23;14.80;50.30
65462;DHT22;53236;43.666;18.444;2023-03-26T15:43:46;14.60;50.90
65462;DHT22;53236;43.666;18.444;2023-03-26T15:48:50;14.40;51.90
65462;DHT22;53236;43.666;18.444;2023-03-26T15:51:32;14.30;51.80
65462;DHT22;53236;43.666;18.444;2023-03-26T15:54:56;14.30;52.00
65462;DHT22;53236;43.666;18.444;2023-03-26T15:59:41;14.20;52.30
65462;DHT22;53236;43.666;18.444;2023-03-26T16:02:42;14.10;51.90
65462;DHT22;53236;43.666;18.444;2023-03-26T16:13:36;13.90;53.00
65462;DHT22;53236;43.666;18.444;2023-03-26T16:29:24;13.50;53.50
65462;DHT22;53236;43.666;18.444;2023-03-26T16:32:09;13.50;54.10
65462;DHT22;53236;43.666;18.444;2023-03-26T16:34:59;13.50;54.40
65462;DHT22;53236;43.666;18.444;2023-03-26T16:43:02;13.30;55.60
65462;DHT22;53236;43.666;18.444;2023-03-26T16:45:36;13.10;56.40
65462;DHT22;53236;43.666;18.444;2023-03-26T16:50:48;13.00;57.60
65462;DHT22;53236;43.666;18.444;2023-03-26T16:58:55;12.60;57.90
65462;DHT22;53236;43.666;18.444;2023-03-26T17:01:46;12.50;58.60
65462;DHT22;53236;43.666;18.444;2023-03-26T17:04:17;12.50;58.40
65462;DHT22;53236;43.666;18.444;2023-03-26T17:06:59;12.40;58.80
65462;DHT22;53236;43.666;18.444;2023-03-26T17:12:42;12.10;59.50
65462;DHT22;53236;43.666;18.444;2023-03-26T17:23:42;11.80;61.60
65462;DHT22;53236;43.666;18.444;2023-03-26T17:29:31;11.90;59.20
65462;DHT22;53236;43.666;18.444;2023-03-26T17:32:10;12.00;60.00
65462;DHT22;53236;43.666;18.444;2023-03-26T17:34:53;11.80;60.70
65462;DHT22;53236;43.666;18.444;2023-03-26T17:42:27;12.00;57.80
65462;DHT22;53236;43.666;18.444;2023-03-26T17:44:57;12.00;58.50
65462;DHT22;53236;43.666;18.444;2023-03-26T17:47:39;12.00;59.20
65462;DHT22;53236;43.666;18.444;2023-03-26T17:50:14;12.00;58.10
65462;DHT22;53236;43.666;18.444;2023-03-26T17:52:58;12.00;58.70
65462;DHT22;53236;43.666;18.444;2023-03-26T17:55:28;12.00;58.40
65462;DHT22;53236;43.666;18.444;2023-03-26T17:58:01;11.90;59.00
65462;DHT22;53236;43.666;18.444;2023-03-26T18:00:32;11.80;59.10
65462;DHT22;53236;43.666;18.444;2023-03-26T18:03:22;11.70;59.60
65462;DHT22;53236;43.666;18.444;2023-03-26T18:05:48;11.70;59.90
65462;DHT22;53236;43.666;18.444;2023-03-26T18:14:22;11.80;59.00
65462;DHT22;53236;43.666;18.444;2023-03-26T18:16:54;11.90;59.90
65462;DHT22;53236;43.666;18.444;2023-03-26T18:19:21;11.70;60.80
65462;DHT22;53236;43.666;18.444;2023-03-26T18:22:01;11.70;60.20
65462;DHT22;53236;43.666;18.444;2023-03-26T18:24:35;11.60;60.10
65462;DHT22;53236;43.666;18.444;2023-03-26T18:27:08;11.60;60.20
65462;DHT22;53236;43.666;18.444;2023-03-26T18:29:36;11.70;59.90
65462;DHT22;53236;43.666;18.444;2023-03-26T18:32:19;11.70;60.10
65462;DHT22;53236;43.666;18.444;2023-03-26T18:34:59;11.70;59.60
65462;DHT22;53236;43.666;18.444;2023-03-26T18:37:33;11.60;60.50
65462;DHT22;53236;43.666;18.444;2023-03-26T18:42:38;11.50;61.10
65462;DHT22;53236;43.666;18.444;2023-03-26T18:45:24;11.50;61.00
65462;DHT22;53236;43.666;18.444;2023-03-26T18:47:56;11.50;61.00
65462;DHT22;53236;43.666;18.444;2023-03-26T18:50:27;11.50;61.10
65462;DHT22;53236;43.666;18.444;2023-03-26T18:52:56;11.50;61.50
65462;DHT22;53236;43.666;18.444;2023-03-26T18:55:26;11.60;61.40
65462;DHT22;53236;43.666;18.444;2023-03-26T18:57:51;11.60;61.40
65462;DHT22;53236;43.666;18.444;2023-03-26T19:00:20;11.60;61.10
65462;DHT22;53236;43.666;18.444;2023-03-26T19:02:49;11.60;61.40
65462;DHT22;53236;43.666;18.444;2023-03-26T19:05:17;11.60;61.20
65462;DHT22;53236;43.666;18.444;2023-03-26T19:07:44;11.60;61.80
65462;DHT22;53236;43.666;18.444;2023-03-26T19:10:16;11.50;62.20
65462;DHT22;53236;43.666;18.444;2023-03-26T19:13:10;11.50;61.30
65462;DHT22;53236;43.666;18.444;2023-03-26T19:15:37;11.50;60.40
65462;DHT22;53236;43.666;18.444;2023-03-26T19:18:05;11.40;61.40
65462;DHT22;53236;43.666;18.444;2023-03-26T19:21:00;11.40;62.20
65462;DHT22;53236;43.666;18.444;2023-03-26T19:23:46;11.40;62.10
65462;DHT22;53236;43.666;18.444;2023-03-26T19:26:12;11.40;63.80
65462;DHT22;53236;43.666;18.444;2023-03-26T19:28:44;11.40;63.80
65462;DHT22;53236;43.666;18.444;2023-03-26T19:33:56;11.40;62.40
65462;DHT22;53236;43.666;18.444;2023-03-26T19:36:28;11.40;62.40
65462;DHT22;53236;43.666;18.444;2023-03-26T19:41:26;11.50;62.30
65462;DHT22;53236;43.666;18.444;2023-03-26T19:43:57;11.50;64.00
65462;DHT22;53236;43.666;18.444;2023-03-26T19:46:24;11.40;65.30
65462;DHT22;53236;43.666;18.444;2023-03-26T19:48:55;11.40;64.70
65462;DHT22;53236;43.666;18.444;2023-03-26T19:53:59;11.30;66.00
65462;DHT22;53236;43.666;18.444;2023-03-26T19:56:25;11.30;66.30
65462;DHT22;53236;43.666;18.444;2023-03-26T19:58:52;11.30;67.00
65462;DHT22;53236;43.666;18.444;2023-03-26T20:01:21;11.30;66.40
65462;DHT22;53236;43.666;18.444;2023-03-26T20:03:50;11.30;67.90
65462;DHT22;53236;43.666;18.444;2023-03-26T20:06:18;11.30;67.90
65462;DHT22;53236;43.666;18.444;2023-03-26T20:08:44;11.20;68.50
65462;DHT22;53236;43.666;18.444;2023-03-26T20:11:19;11.30;67.70
65462;DHT22;53236;43.666;18.444;2023-03-26T20:13:45;11.40;67.20
65462;DHT22;53236;43.666;18.444;2023-03-26T20:16:24;11.40;67.90
65462;DHT22;53236;43.666;18.444;2023-03-26T20:18:51;11.40;67.10
65462;DHT22;53236;43.666;18.444;2023-03-26T20:21:17;11.40;67.20
65462;DHT22;53236;43.666;18.444;2023-03-26T20:23:42;11.40;67.40
65462;DHT22;53236;43.666;18.444;2023-03-26T20:26:12;11.40;68.00
65462;DHT22;53236;43.666;18.444;2023-03-26T20:28:38;11.40;68.30
65462;DHT22;53236;43.666;18.444;2023-03-26T20:31:03;11.40;69.40
65462;DHT22;53236;43.666;18.444;2023-03-26T20:33:29;11.40;68.10
65462;DHT22;53236;43.666;18.444;2023-03-26T20:35:56;11.30;67.70
65462;DHT22;53236;43.666;18.444;2023-03-26T20:38:23;11.50;67.10
65462;DHT22;53236;43.666;18.444;2023-03-26T20:40:52;11.40;67.80
65462;DHT22;53236;43.666;18.444;2023-03-26T20:43:18;11.50;68.40
65462;DHT22;53236;43.666;18.444;2023-03-26T20:45:46;11.50;68.60
65462;DHT22;53236;43.666;18.444;2023-03-26T20:48:13;11.50;69.90
65462;DHT22;53236;43.666;18.444;2023-03-26T20:50:39;11.40;70.40
65462;DHT22;53236;43.666;18.444;2023-03-26T20:53:14;11.40;70.80
65462;DHT22;53236;43.666;18.444;2023-03-26T20:55:42;11.50;69.90
65462;DHT22;53236;43.666;18.444;2023-03-26T20:58:18;11.50;71.80
65462;DHT22;53236;43.666;18.444;2023-03-26T21:00:48;11.40;73.60
65462;DHT22;53236;43.666;18.444;2023-03-26T21:03:17;11.30;74.50
65462;DHT22;53236;43.666;18.444;2023-03-26T21:05:43;11.30;75.00
65462;DHT22;53236;43.666;18.444;2023-03-26T21:08:14;11.30;77.10
65462;DHT22;53236;43.666;18.444;2023-03-26T21:10:41;11.20;77.70
65462;DHT22;53236;43.666;18.444;2023-03-26T21:13:42;11.20;77.90
65462;DHT22;53236;43.666;18.444;2023-03-26T21:16:10;11.20;78.80
65462;DHT22;53236;43.666;18.444;2023-03-26T21:18:36;11.20;79.00
65462;DHT22;53236;43.666;18.444;2023-03-26T21:21:28;11.20;79.10
65462;DHT22;53236;43.666;18.444;2023-03-26T21:27:06;11.20;79.70
65462;DHT22;53236;43.666;18.444;2023-03-26T21:29:34;11.20;79.90
65462;DHT22;53236;43.666;18.444;2023-03-26T21:32:00;11.20;80.40
65462;DHT22;53236;43.666;18.444;2023-03-26T21:34:26;11.20;82.70
65462;DHT22;53236;43.666;18.444;2023-03-26T21:36:52;11.20;80.70